Mitu, Fabio Alberto León Bentley Airport (SKMU)

NameFabio Alberto León Bentley Airport
CityMitu
CountryColombia
ICAOSKMU
IATAMVP
Altitude207 m
CoordinatesGoogle Map
Live Air TrafficLiveATC.net
METARSKMU 201500Z 22007KT 9999 SCT010 BKN015 27/22 A3007
2018-12-20 15:00:00 Wind: South-Southwest (220°) 3.6 m/s - Visibility: > 10000 m - Temperature: 27 °C - Dew point: 22 °C - Humidity: 74.2% - Pressure: 1018.29 hPa

Sorry, no flights used the airport in this database.